In Rescue
 
Open Full Screen Window  High Contrast Mode
October 19, 2020 8:54 PM EDT
Present Weather: Light Rain
Weather Information
Wind Direction
  ---
Wind Speed
  00 kt (0 mph)
Wind Gust
  00 kt (0 mph)
Altimeter
30.20 in
Visibility
5 SM
Temperature
06° C
43° F
Dewpoint
05° C
41° F
Humidity
93%
1hr Rain Fall
00.05 in.
24hr Rain Fall
00.06 in.
Sky Condition
Missing
MVFR

METAR KD95 200054Z AUTO 00000KT 5SM -RA 06/05 A3020 RMK AO2 P0005 T00550050

FAA Disclaimer: The data displayed is for advisory purposes only and is not to be used for flight planning or operations.
Missing Cloud Data